Thursday, May 5, 2016, 6:23 AM EDT
Back to Local

KMPO, Mt Pocono Pocono Mountains

Location: Pocono Summit, PA, United States Lat: 41.133
Local Time: 6:23 AM EDT (10:23 GMT) Lon: -75.383
Time Zone: US/Eastern Elev: 1915 ft

Show me the last for .
Show Decoded

2016-05-05 05:53 METAR KMPO 050953Z AUTO 01006KT 10SM OVC016 04/04 A2968 RMK AO2 SLP059 T00440039
                 TSNO =
2016-05-05 05:34 METAR KMPO 050934Z AUTO 01006KT 10SM SCT002 OVC016 04/04 A2969 RMK AO2 T00390039
                 TSNO =
2016-05-05 04:53 METAR KMPO 050853Z AUTO 05007KT 6SM BR OVC002 04/04 A2969 RMK AO2 SLP065
                 T00390039 55003 TSNO =
2016-05-05 04:44 METAR KMPO 050844Z AUTO 06006KT 3SM BR OVC002 04/04 A2969 RMK AO2 T00390039 TSNO
                 =
2016-05-05 04:39 METAR KMPO 050839Z AUTO 08006KT 1 3/4SM BR OVC002 04/04 A2969 RMK AO2 T00390039
                 TSNO =
2016-05-05 04:30 METAR KMPO 050830Z AUTO 08007KT 2 1/2SM BR OVC002 04/04 A2969 RMK AO2 T00390039
                 TSNO =
2016-05-05 03:53 METAR KMPO 050753Z AUTO 08008KT 8SM OVC002 04/04 A2969 RMK AO2 SLP062 T00390039
                 TSNO =
2016-05-05 02:53 METAR KMPO 050653Z AUTO 09006KT 10SM OVC004 04/04 A2970 RMK AO2 SLP067 T00390039
                 TSNO =
2016-05-05 02:24 METAR KMPO 050624Z AUTO 08008KT 10SM BKN006 OVC039 04/04 A2970 RMK AO2 T00390039
                 TSNO =
2016-05-05 02:01 METAR KMPO 050601Z AUTO 07009KT 4SM BR BKN002 BKN006 OVC042 04/04 A2970 RMK AO2
                 T00390039 TSNO =
2016-05-05 01:58 METAR KMPO 050558Z AUTO 06009G17KT 1SM BR BKN002 OVC042 04/04 A2970 RMK AO2
                 T00390039 TSNO =
2016-05-05 01:53 METAR KMPO 050553Z AUTO 07011G17KT 1/4SM FG VV002 04/04 A2970 RMK AO2 SLP067
                 60000 T00440044 10056 20044 58006 TSNO =
2016-05-05 01:32 METAR KMPO 050532Z AUTO 08008KT 1/4SM FG VV002 04/04 A2972 RMK AO2 T00440044
                 TSNO =
2016-05-05 01:22 METAR KMPO 050522Z AUTO 08009KT 1/2SM FG VV002 04/04 A2972 RMK AO2 T00440044
                 TSNO =
2016-05-05 01:06 METAR KMPO 050506Z AUTO 07008KT 1SM BR VV002 04/04 A2972 RMK AO2 T00440044 TSNO
                 =
2016-05-05 00:53 METAR KMPO 050453Z AUTO 09005KT 1/4SM FG VV002 04/04 A2972 RMK AO2 SLP073
                 T00440044 400830044 TSNO =
2016-05-05 00:07 METAR KMPO 050407Z AUTO 07008KT 1/4SM FG VV002 04/04 A2971 RMK AO2 T00440044
                 TSNO =
2016-05-04 23:53 METAR KMPO 050353Z AUTO 07007KT 3/4SM BR OVC002 04/04 A2971 RMK AO2 SLP070
                 T00440044 TSNO =
2016-05-04 23:50 METAR KMPO 050350Z AUTO 09006KT 1 1/2SM BR OVC002 04/04 A2971 RMK AO2 TSNO =
2016-05-04 23:39 METAR KMPO 050339Z AUTO 08007KT 5SM BR OVC002 04/04 A2972 RMK AO2 T00440044 TSNO
                 =
2016-05-04 23:31 METAR KMPO 050331Z AUTO 06007KT 2SM BR OVC002 04/04 A2971 RMK AO2 T00440044 TSNO
                 =
2016-05-04 23:26 METAR KMPO 050326Z AUTO 07007KT 3/4SM BR VV002 05/05 A2971 RMK AO2 T00500050
                 TSNO =
2016-05-04 23:16 METAR KMPO 050316Z AUTO 06007KT 1 1/2SM BR OVC002 05/05 A2972 RMK AO2 T00500050
                 TSNO =
2016-05-04 22:53 METAR KMPO 050253Z AUTO 08009KT 6SM BR OVC002 05/05 A2972 RMK AO2 SLP073 60000
                 T00500050 50002 TSNO =
2016-05-04 22:51 METAR KMPO 050251Z AUTO 08010KT 2SM BR BKN002 OVC007 05/05 A2972 RMK AO2 TSNO =
2016-05-04 22:16 METAR KMPO 050216Z AUTO 08008KT 1/2SM FG VV002 05/05 A2973 RMK AO2 T00500050
                 TSNO =
2016-05-04 22:02 METAR KMPO 050202Z AUTO 07007KT 1 3/4SM BR OVC002 05/05 A2974 RMK AO2 T00500050
                 TSNO =
2016-05-04 21:53 METAR KMPO 050153Z AUTO 07011KT 3SM BR OVC002 05/05 A2974 RMK AO2 SLP079
                 T00500050 TSNO =
2016-05-04 20:53 METAR KMPO 050053Z AUTO 09007KT 9SM OVC004 06/06 A2973 RMK AO2 RAB30E40 SLP076
                 P0000 T00560056 TSNO =
2016-05-04 20:36 METAR KMPO 050036Z AUTO 09009KT 3SM -RA BR OVC002 06/06 A2973 RMK AO2 RAB30
                 P0000 T00560056 TSNO =
2016-05-04 20:27 METAR KMPO 050027Z AUTO 08006KT 1 3/4SM BR OVC002 06/06 A2973 RMK AO2 T00560056
                 TSNO =
2016-05-04 20:00 METAR KMPO 050000Z AUTO 09008KT 3SM BR OVC002 06/06 A2972 RMK AO2 T00560056 TSNO
                 =
2016-05-04 19:53 METAR KMPO 042353Z AUTO 08007KT 1 1/4SM BR OVC002 06/06 A2972 RMK AO2 SLP071
                 60001 T00560056 10083 20056 52006 TSNO =
2016-05-04 19:48 METAR KMPO 042348Z AUTO 09009KT 3/4SM BR OVC002 06/06 A2971 RMK AO2 TSNO =
2016-05-04 19:10 METAR KMPO 042310Z AUTO 08007KT 1 3/4SM BR OVC002 06/06 A2970 RMK AO2 T00560056
                 TSNO =
2016-05-04 19:01 METAR KMPO 042301Z AUTO 07008KT 3SM BR OVC002 06/06 A2970 RMK AO2 T00610061 TSNO
                 =
2016-05-04 18:53 METAR KMPO 042253Z AUTO 08009KT 1 3/4SM BR OVC002 06/06 A2970 RMK AO2 SLP065
                 T00560056 TSNO =
2016-05-04 17:53 METAR KMPO 042153Z AUTO 08008KT 1 1/4SM BR OVC002 06/06 A2970 RMK AO2 SLP063
                 T00610061 TSNO =
2016-05-04 17:45 METAR KMPO 042145Z AUTO 08010KT 1 1/2SM BR OVC002 06/06 A2970 RMK AO2 T00610061
                 TSNO =
2016-05-04 17:22 METAR KMPO 042122Z AUTO 06007KT 2SM BR OVC003 06/06 A2970 RMK AO2 T00610061 TSNO
                 =
2016-05-04 16:53 METAR KMPO 042053Z AUTO 07008KT 5SM BR OVC003 06/06 A2969 RMK AO2 SLP062 P0001
                 60001 T00610061 56004 TSNO =
2016-05-04 16:30 METAR KMPO 042030Z AUTO 08007KT 4SM BR OVC004 07/07 A2969 RMK AO2 P0001
                 T00670067 TSNO =
2016-05-04 16:19 METAR KMPO 042019Z AUTO 06007KT 2 1/2SM BR OVC004 07/07 A2969 RMK AO2 P0001
                 T00670067 TSNO =
2016-05-04 16:05 METAR KMPO 042005Z AUTO 06007KT 1 1/2SM BR OVC004 07/07 A2969 RMK AO2 CIG
                 003V008 P0001 T00670067 TSNO =
2016-05-04 15:53 METAR KMPO 041953Z AUTO 06007KT 2SM BR OVC004 08/07 A2969 RMK AO2 RAB00E33 CIG
                 003V008 SLP061 P0000 T00780067 TSNO =
2016-05-04 15:00 METAR KMPO 041900Z AUTO 08006KT 1SM -RA BR OVC003 08/07 A2971 RMK AO2 RAB00
                 P0000 T00780067 TSNO =
2016-05-04 14:53 METAR KMPO 041853Z AUTO 09006KT 2SM BR OVC003 08/07 A2971 RMK AO2 SLP065
                 T00780067 TSNO =
2016-05-04 14:05 METAR KMPO 041805Z AUTO 11005KT 5SM BR OVC002 07/06 A2972 RMK AO2 T00720061 TSNO
                 =
2016-05-04 13:53 METAR KMPO 041753Z AUTO 09008KT 2 1/2SM BR OVC002 07/07 A2972 RMK AO2 RAE06
                 SLP073 P0000 60011 T00720067 10078 20072 58008 TSNO =
2016-05-04 13:48 METAR KMPO 041748Z AUTO 10009KT 1 1/4SM BR OVC002 07/06 A2973 RMK AO2 RAE06
                 P0000 TSNO =
2016-05-04 13:28 METAR KMPO 041728Z AUTO 09008KT 1/4SM FG VV002 07/07 A2973 RMK AO2 RAE06 P0000
                 T00720067 TSNO =
2016-05-04 13:20 METAR KMPO 041720Z AUTO 10007KT 1/2SM FG VV002 07/06 A2974 RMK AO2 RAE06 P0000
                 T00720061 TSNO =
2016-05-04 12:53 METAR KMPO 041653Z AUTO 10007KT 1/4SM -RA FG VV002 07/06 A2974 RMK AO2 RAB14
                 SLP077 P0001 T00720061 TSNO =
2016-05-04 11:53 METAR KMPO 041553Z AUTO 12009KT M1/4SM FG VV002 07/07 A2974 RMK AO2 RAB1456E39
                 SLP078 P0009 T00720067 TSNO =
2016-05-04 11:27 METAR KMPO 041527Z AUTO 09010KT 1/4SM RA FG VV002 08/07 A2974 RMK AO2 RAB1456
                 P0009 T00780067 TSNO =
2016-05-04 11:04 METAR KMPO 041504Z AUTO 11007KT 1 3/4SM RA BR OVC002 08/07 A2975 RMK AO2 RAB1456
                 P0003 T00780067 TSNO =
2016-05-04 10:53 METAR KMPO 041453Z AUTO 11007KT 10SM OVC002 08/07 A2975 RMK AO2 RAE32 SLP080
                 P0000 60001 T00780067 55005 TSNO =
2016-05-04 10:49 METAR KMPO 041449Z AUTO 11008KT 5SM BR OVC002 08/07 A2975 RMK AO2 RAE32 P0000
                 TSNO =
2016-05-04 10:47 METAR KMPO 041447Z AUTO 12008KT 1 1/4SM BR OVC002 08/07 A2975 RMK AO2 RAE32
                 P0000 TSNO =
2016-05-04 09:53 METAR KMPO 041353Z AUTO 10007KT M1/4SM -RA FG VV002 08/07 A2975 RMK AO2 RAE00B53
                 SLP079 P0000 T00780067 TSNO =
2016-05-04 09:38 METAR KMPO 041338Z AUTO 10008KT 1/4SM FG VV002 08/07 A2974 RMK AO2 RAE00 P0000
                 T00780067 TSNO =
2016-05-04 09:28 METAR KMPO 041328Z AUTO 12006KT 1SM BR VV002 07/07 A2974 RMK AO2 VIS 1/4V5 RAE00
                 P0000 T00720067 TSNO =
2016-05-04 09:13 METAR KMPO 041313Z AUTO 10007KT 1/4SM FG VV002 07/07 A2974 RMK AO2 RAE00 P0000
                 T00720067 TSNO =
2016-05-04 09:07 METAR KMPO 041307Z AUTO 10008KT 1 1/2SM BR OVC002 07/07 A2975 RMK AO2 RAE00
                 P0000 T00720067 TSNO =
2016-05-04 09:02 METAR KMPO 041302Z AUTO 10008KT 4SM BR OVC002 08/07 A2975 RMK AO2 RAE00 P0000
                 T00780067 TSNO =
2016-05-04 09:00 METAR KMPO 041300Z AUTO 10006KT 1 1/2SM BR OVC002 07/07 A2975 RMK AO2 RAE00
                 P0000 T00720067 TSNO =
2016-05-04 08:53 METAR KMPO 041253Z AUTO 10007KT 1/4SM -RA FG VV002 08/07 A2975 RMK AO2 SLP080
                 P0001 T00780067 TSNO =
2016-05-04 08:33 METAR KMPO 041233Z AUTO 11006KT 1/4SM -RA FG VV002 08/07 A2976 RMK AO2 P0000
                 T00780067 TSNO =
2016-05-04 08:25 METAR KMPO 041225Z AUTO 14008KT 1/2SM -RA FG VV002 07/07 A2976 RMK AO2 P0000
                 T00720067 TSNO =
2016-05-04 08:11 METAR KMPO 041211Z AUTO 13009KT 1SM -RA BR VV002 07/07 A2976 RMK AO2 P0000
                 T00720067 TSNO =
2016-05-04 07:53 METAR KMPO 041153Z AUTO 13006KT 1/4SM -RA FG VV002 08/07 A2977 RMK AO2 RAB31
                 SLP086 P0000 60016 70019 T00780067 10083 20078 53004 TSNO $ =
2016-05-04 07:35 METAR KMPO 041135Z AUTO 13008KT 1/4SM -RA FG VV002 08/07 A2976 RMK AO2 RAB31
                 P0000 T00780067 TSNO $ =
2016-05-04 07:26 METAR KMPO 041126Z AUTO 13008KT 3/4SM BR OVC002 08/07 A2976 RMK AO2 VIS 1/4V5
                 T00780067 TSNO $ =
2016-05-04 07:01 METAR KMPO 041101Z AUTO 15008KT 4SM BR OVC002 08/07 A2975 RMK AO2 T00780067 TSNO
                 $ =
2016-05-04 06:53 METAR KMPO 041053Z AUTO 13007KT 1 1/2SM BR OVC002 08/07 A2976 RMK AO2 VIS 1V2
                 1/2 RAE07B26E39 SLP083 P0001 T00780067 TSNO $ =
2016-05-04 06:51 METAR KMPO 041051Z AUTO 14009KT 1SM BR VV002 08/07 A2976 RMK AO2 RAE07B26E39
                 P0001 TSNO $ =

Support USWX by starting your Amazon purchase here.